Main page
Satellite images 15-day forecastsClimateMarine weather Cyclones Lightning AirportsFAQ Newsletter About
Weather : Europe Africa North America South America Asia Australia-Oceania Others
Languages Contact

London-Southend, England

latitude: 51-34N, longitude: 000-42E, elevation: 15 m


METAR: EGMC 230350Z 15004KT 5000 BR OVC009 12/11 Q1014
TAF: EGMC 230200Z 2303/2312 15005KT 4000 BR BKN006 TEMPO 2303/2312 1200 RADZ BKN003

Time: 04:18 (04:18 UTC)

Current weather observation

The report was made 28 minutes ago, at 03:50 UTC
Wind 4 kt from the South/Southeast
Temperature 12°C
Humidity 94%
Pressure 1014 hPa
Visibility: 5000 m
Overcast at a height of 900 ft
mist

Change units

Forecast

The report was made 2 hours and 18 minutes ago, at 02:00 UTC
Forecast valid from 23 at 03 UTC to 23 at 12 UTC
Wind 5 kt from the South/Southeast
Visibility: 4000 m
Broken clouds at a height of 600 ft
mist
Temporary
from 23 at 03 UTC to 23 at 12 UTC
Visibility: 1200 m
Broken clouds at a height of 300 ft
rain drizzle
The information on this site is subject to a disclaimer
Weather : Europe Africa North America South America Asia Australia-Oceania Others
Satellite images 15-day forecastsClimateMarine weather Cyclones Lightning AirportsFAQ Languages Contact Newsletter About